Terminal Aerodrome Forecast
Issued by NWS

Home | Current Version | Previous Version | Text Only | Print | Product List | Glossary On
Versions: 1 2 3 4 5 6 7 8 9 10 11 12 13 14 15 16 17 18 19 20 21 22 23 24 25 26 27 28 29 30 31 32 33 34 35 36 37 38 39 40 41 42 43 44 45 46 47 48 49 50
000
FTUS45 KSLC 180525
TAFEVW
TAF
KEVW 180525Z 1806/1906 08010KT P6SM BKN050
     FM180800 14006KT P6SM SCT050
     FM181400 24008KT P6SM SCT070
     FM182000 33013G19KT P6SM VCSH SCT050 BKN070
     FM190500 10009KT P6SM BKN060=

USA.gov is the U.S. government's official web portal to all federal, state and local government web resources and services.